sensor_id;sensor_type;location;lat;lon;timestamp;pressure;altitude;pressure_sealevel;temperature;humidity
818;BME280;391;51.052;6.954;2023-04-26T00:00:47;101187.69;;;8.16;62.12
818;BME280;391;51.052;6.954;2023-04-26T00:02:51;101201.59;;;8.18;62.31
818;BME280;391;51.052;6.954;2023-04-26T00:04:55;101207.94;;;8.06;62.17
818;BME280;391;51.052;6.954;2023-04-26T00:07:03;101197.63;;;7.88;62.29
818;BME280;391;51.052;6.954;2023-04-26T00:09:07;101201.97;;;7.89;63.02
818;BME280;391;51.052;6.954;2023-04-26T00:11:12;101198.13;;;7.81;63.06
818;BME280;391;51.052;6.954;2023-04-26T00:13:15;101199.31;;;7.87;63.48
818;BME280;391;51.052;6.954;2023-04-26T00:15:19;101206.25;;;7.88;63.66
818;BME280;391;51.052;6.954;2023-04-26T00:17:22;101207.25;;;7.90;63.35
818;BME280;391;51.052;6.954;2023-04-26T00:19:26;101183.50;;;7.83;63.74
818;BME280;391;51.052;6.954;2023-04-26T00:21:29;101198.63;;;7.91;63.71
818;BME280;391;51.052;6.954;2023-04-26T00:23:33;101139.59;;;7.51;63.78
818;BME280;391;51.052;6.954;2023-04-26T00:25:37;101206.06;;;7.84;63.44
818;BME280;391;51.052;6.954;2023-04-26T00:27:42;101206.69;;;7.78;63.99
818;BME280;391;51.052;6.954;2023-04-26T00:29:45;101189.78;;;7.69;63.88
818;BME280;391;51.052;6.954;2023-04-26T00:31:50;101206.53;;;7.75;63.88
818;BME280;391;51.052;6.954;2023-04-26T00:33:53;101071.47;;;7.00;64.03
818;BME280;391;51.052;6.954;2023-04-26T00:35:57;101202.81;;;7.70;64.03
818;BME280;391;51.052;6.954;2023-04-26T00:38:00;101194.31;;;7.55;64.10
818;BME280;391;51.052;6.954;2023-04-26T00:40:04;101194.22;;;7.54;64.29
818;BME280;391;51.052;6.954;2023-04-26T00:42:08;101188.06;;;7.52;64.35
818;BME280;391;51.052;6.954;2023-04-26T00:44:14;101192.38;;;7.51;64.47
818;BME280;391;51.052;6.954;2023-04-26T00:46:17;101184.59;;;7.51;64.27
818;BME280;391;51.052;6.954;2023-04-26T00:48:21;101180.16;;;7.49;64.31
818;BME280;391;51.052;6.954;2023-04-26T00:50:25;101181.59;;;7.43;64.36
818;BME280;391;51.052;6.954;2023-04-26T00:52:28;101184.75;;;7.36;64.42
818;BME280;391;51.052;6.954;2023-04-26T00:54:33;101192.38;;;7.33;64.40
818;BME280;391;51.052;6.954;2023-04-26T00:56:37;101183.31;;;7.25;64.82
818;BME280;391;51.052;6.954;2023-04-26T00:58:41;101179.78;;;7.23;64.98
818;BME280;391;51.052;6.954;2023-04-26T01:00:46;101181.94;;;7.14;65.00
818;BME280;391;51.052;6.954;2023-04-26T01:02:51;101188.88;;;7.15;65.65
818;BME280;391;51.052;6.954;2023-04-26T01:04:55;101184.72;;;7.19;65.53
818;BME280;391;51.052;6.954;2023-04-26T01:06:59;101181.22;;;7.18;65.58
818;BME280;391;51.052;6.954;2023-04-26T01:09:04;101188.22;;;7.19;65.45
818;BME280;391;51.052;6.954;2023-04-26T01:11:11;101189.75;;;7.16;65.49
818;BME280;391;51.052;6.954;2023-04-26T01:13:15;101191.47;;;7.15;65.63
818;BME280;391;51.052;6.954;2023-04-26T01:15:21;101066.50;;;6.35;65.63
818;BME280;391;51.052;6.954;2023-04-26T01:17:26;101199.03;;;7.11;65.56
818;BME280;391;51.052;6.954;2023-04-26T01:19:31;101196.50;;;7.12;65.82
818;BME280;391;51.052;6.954;2023-04-26T01:21:34;101194.72;;;7.11;65.96
818;BME280;391;51.052;6.954;2023-04-26T01:23:39;101200.41;;;7.04;66.05
818;BME280;391;51.052;6.954;2023-04-26T01:25:43;101197.09;;;7.07;66.06
818;BME280;391;51.052;6.954;2023-04-26T01:27:46;101200.72;;;7.10;66.08
818;BME280;391;51.052;6.954;2023-04-26T01:29:50;101203.22;;;7.09;66.25
818;BME280;391;51.052;6.954;2023-04-26T01:31:53;101199.69;;;7.07;66.23
818;BME280;391;51.052;6.954;2023-04-26T01:33:57;101195.28;;;7.06;66.45
818;BME280;391;51.052;6.954;2023-04-26T01:36:00;101194.50;;;7.07;66.46
818;BME280;391;51.052;6.954;2023-04-26T01:38:04;101197.19;;;7.08;66.38
818;BME280;391;51.052;6.954;2023-04-26T01:40:09;101206.56;;;7.06;66.42
818;BME280;391;51.052;6.954;2023-04-26T01:42:13;101194.03;;;6.98;66.74
818;BME280;391;51.052;6.954;2023-04-26T01:44:16;101193.94;;;6.96;66.38
818;BME280;391;51.052;6.954;2023-04-26T01:46:20;101192.91;;;6.92;66.41
818;BME280;391;51.052;6.954;2023-04-26T01:48:24;101192.13;;;6.77;66.49
818;BME280;391;51.052;6.954;2023-04-26T01:50:27;101195.72;;;6.63;66.87
818;BME280;391;51.052;6.954;2023-04-26T01:52:30;101186.19;;;6.46;67.17
818;BME280;391;51.052;6.954;2023-04-26T01:54:34;101192.25;;;6.47;67.26
818;BME280;391;51.052;6.954;2023-04-26T01:56:39;101184.56;;;6.48;67.13
818;BME280;391;51.052;6.954;2023-04-26T01:58:42;101193.31;;;6.50;67.43
818;BME280;391;51.052;6.954;2023-04-26T02:00:45;101193.38;;;6.52;67.69
818;BME280;391;51.052;6.954;2023-04-26T02:02:49;101192.41;;;6.50;67.36
818;BME280;391;51.052;6.954;2023-04-26T02:04:52;101195.81;;;6.49;67.44
818;BME280;391;51.052;6.954;2023-04-26T02:06:59;101195.06;;;6.51;67.73
818;BME280;391;51.052;6.954;2023-04-26T02:09:02;101196.13;;;6.55;67.62
818;BME280;391;51.052;6.954;2023-04-26T02:11:06;101189.72;;;6.48;67.68
818;BME280;391;51.052;6.954;2023-04-26T02:13:11;101191.28;;;6.45;67.86
818;BME280;391;51.052;6.954;2023-04-26T02:15:15;101193.00;;;6.44;67.82
818;BME280;391;51.052;6.954;2023-04-26T02:17:18;101188.69;;;6.45;67.90
818;BME280;391;51.052;6.954;2023-04-26T02:19:23;101204.22;;;6.45;67.46
818;BME280;391;51.052;6.954;2023-04-26T02:21:28;101194.22;;;6.34;67.58
818;BME280;391;51.052;6.954;2023-04-26T02:23:31;101188.34;;;6.22;68.02
818;BME280;391;51.052;6.954;2023-04-26T02:25:35;101202.34;;;6.26;67.70
818;BME280;391;51.052;6.954;2023-04-26T02:27:38;101201.47;;;6.25;68.40
818;BME280;391;51.052;6.954;2023-04-26T02:29:43;101194.44;;;6.23;68.18
818;BME280;391;51.052;6.954;2023-04-26T02:31:47;101205.94;;;6.28;68.26
818;BME280;391;51.052;6.954;2023-04-26T02:33:50;101144.34;;;6.06;68.48
818;BME280;391;51.052;6.954;2023-04-26T02:35:54;101193.22;;;6.32;68.20
818;BME280;391;51.052;6.954;2023-04-26T02:37:57;101192.50;;;6.35;68.28
818;BME280;391;51.052;6.954;2023-04-26T02:40:01;101191.47;;;6.31;68.28
818;BME280;391;51.052;6.954;2023-04-26T02:42:08;101187.81;;;6.28;67.97
818;BME280;391;51.052;6.954;2023-04-26T02:44:11;101185.88;;;6.24;68.34
818;BME280;391;51.052;6.954;2023-04-26T02:46:16;101183.38;;;6.09;67.88
818;BME280;391;51.052;6.954;2023-04-26T02:48:19;101177.34;;;6.10;68.62
818;BME280;391;51.052;6.954;2023-04-26T02:50:23;101187.66;;;6.09;68.22
818;BME280;391;51.052;6.954;2023-04-26T02:52:26;101183.28;;;6.08;68.74
818;BME280;391;51.052;6.954;2023-04-26T02:54:30;101184.47;;;5.98;68.08
818;BME280;391;51.052;6.954;2023-04-26T02:56:33;101180.75;;;5.93;68.13
818;BME280;391;51.052;6.954;2023-04-26T02:58:37;101162.94;;;5.68;68.47
818;BME280;391;51.052;6.954;2023-04-26T03:00:44;101176.16;;;5.73;68.66
818;BME280;391;51.052;6.954;2023-04-26T03:02:50;101180.53;;;5.74;69.37
818;BME280;391;51.052;6.954;2023-04-26T03:04:54;101171.59;;;5.69;69.18
818;BME280;391;51.052;6.954;2023-04-26T03:06:58;101174.63;;;5.76;69.13
818;BME280;391;51.052;6.954;2023-04-26T03:09:01;101179.00;;;5.77;68.70
818;BME280;391;51.052;6.954;2023-04-26T03:11:06;101178.09;;;5.77;69.28
818;BME280;391;51.052;6.954;2023-04-26T03:13:10;101170.09;;;5.72;69.36
818;BME280;391;51.052;6.954;2023-04-26T03:15:13;101178.09;;;5.77;69.28
818;BME280;391;51.052;6.954;2023-04-26T03:17:17;101180.03;;;5.81;69.12
818;BME280;391;51.052;6.954;2023-04-26T03:19:23;101184.56;;;5.85;69.60
818;BME280;391;51.052;6.954;2023-04-26T03:21:27;101174.38;;;5.87;69.06
818;BME280;391;51.052;6.954;2023-04-26T03:23:30;101184.22;;;5.94;68.93
818;BME280;391;51.052;6.954;2023-04-26T03:25:35;101183.19;;;5.90;69.24
818;BME280;391;51.052;6.954;2023-04-26T03:27:38;101176.28;;;5.91;69.06
818;BME280;391;51.052;6.954;2023-04-26T03:29:42;101182.13;;;5.87;68.96
818;BME280;391;51.052;6.954;2023-04-26T03:31:45;101174.97;;;5.82;68.53
818;BME280;391;51.052;6.954;2023-04-26T03:33:49;101172.56;;;5.85;69.30
818;BME280;391;51.052;6.954;2023-04-26T03:35:54;101161.91;;;5.81;69.10
818;BME280;391;51.052;6.954;2023-04-26T03:37:57;101166.31;;;5.82;69.10
818;BME280;391;51.052;6.954;2023-04-26T03:40:01;101167.06;;;5.65;69.32
818;BME280;391;51.052;6.954;2023-04-26T03:42:07;101162.38;;;5.58;69.64
818;BME280;391;51.052;6.954;2023-04-26T03:44:10;101135.69;;;5.28;69.43
818;BME280;391;51.052;6.954;2023-04-26T03:46:15;101172.69;;;5.42;69.14
818;BME280;391;51.052;6.954;2023-04-26T03:48:20;101168.09;;;5.52;69.81
818;BME280;391;51.052;6.954;2023-04-26T03:50:23;101172.41;;;5.52;69.89
818;BME280;391;51.052;6.954;2023-04-26T03:52:28;101037.91;;;4.74;69.76
818;BME280;391;51.052;6.954;2023-04-26T03:54:32;101171.78;;;5.41;69.54
818;BME280;391;51.052;6.954;2023-04-26T03:56:36;101161.66;;;5.29;69.04
818;BME280;391;51.052;6.954;2023-04-26T03:58:40;101167.34;;;5.39;69.39
818;BME280;391;51.052;6.954;2023-04-26T04:00:45;101170.94;;;5.26;69.92
818;BME280;391;51.052;6.954;2023-04-26T04:02:48;101167.28;;;5.22;69.51
818;BME280;391;51.052;6.954;2023-04-26T04:04:58;101172.06;;;5.31;69.51
818;BME280;391;51.052;6.954;2023-04-26T04:07:02;101174.81;;;5.34;70.36
818;BME280;391;51.052;6.954;2023-04-26T04:09:08;101176.94;;;5.41;69.79
818;BME280;391;51.052;6.954;2023-04-26T04:11:12;101179.72;;;5.44;70.78
818;BME280;391;51.052;6.954;2023-04-26T04:13:18;101152.53;;;5.36;70.33
818;BME280;391;51.052;6.954;2023-04-26T04:15:22;101174.88;;;5.50;70.33
818;BME280;391;51.052;6.954;2023-04-26T04:17:29;101174.97;;;5.52;69.67
818;BME280;391;51.052;6.954;2023-04-26T04:19:35;101174.81;;;5.49;70.41
818;BME280;391;51.052;6.954;2023-04-26T04:21:41;101171.69;;;5.40;70.21
818;BME280;391;51.052;6.954;2023-04-26T04:23:51;101175.38;;;5.28;70.00
818;BME280;391;51.052;6.954;2023-04-26T04:25:58;101179.31;;;5.22;70.35
818;BME280;391;51.052;6.954;2023-04-26T04:28:02;101180.75;;;5.17;69.63
818;BME280;391;51.052;6.954;2023-04-26T04:30:06;101180.81;;;5.18;70.57
818;BME280;391;51.052;6.954;2023-04-26T04:32:10;101190.38;;;5.19;69.77
818;BME280;391;51.052;6.954;2023-04-26T04:34:15;101167.38;;;5.09;70.01
818;BME280;391;51.052;6.954;2023-04-26T04:36:19;101194.88;;;5.23;70.80
818;BME280;391;51.052;6.954;2023-04-26T04:38:23;101189.88;;;5.26;70.43
818;BME280;391;51.052;6.954;2023-04-26T04:40:27;101193.91;;;5.21;69.76
818;BME280;391;51.052;6.954;2023-04-26T04:42:33;101186.00;;;5.18;70.53
818;BME280;391;51.052;6.954;2023-04-26T04:44:40;101192.50;;;5.12;70.63
818;BME280;391;51.052;6.954;2023-04-26T04:46:44;101166.69;;;4.97;70.50
818;BME280;391;51.052;6.954;2023-04-26T04:48:49;101198.72;;;5.15;70.97
818;BME280;391;51.052;6.954;2023-04-26T04:50:54;101185.91;;;5.17;70.80
818;BME280;391;51.052;6.954;2023-04-26T04:53:02;101194.09;;;5.24;71.01
818;BME280;391;51.052;6.954;2023-04-26T04:55:06;101196.66;;;5.24;70.96
818;BME280;391;51.052;6.954;2023-04-26T04:57:11;101190.72;;;5.25;70.62
818;BME280;391;51.052;6.954;2023-04-26T04:59:17;101198.47;;;5.25;71.02
818;BME280;391;51.052;6.954;2023-04-26T05:01:22;101196.06;;;5.28;71.15
818;BME280;391;51.052;6.954;2023-04-26T05:03:29;101205.78;;;5.32;71.18
818;BME280;391;51.052;6.954;2023-04-26T05:05:35;101205.50;;;5.28;71.24
818;BME280;391;51.052;6.954;2023-04-26T05:07:39;101204.59;;;5.27;71.36
818;BME280;391;51.052;6.954;2023-04-26T05:09:42;101205.28;;;5.40;70.85
818;BME280;391;51.052;6.954;2023-04-26T05:11:47;101221.88;;;5.43;71.38
818;BME280;391;51.052;6.954;2023-04-26T05:13:51;101224.00;;;5.50;71.34
818;BME280;391;51.052;6.954;2023-04-26T05:15:56;101223.28;;;5.53;71.15
818;BME280;391;51.052;6.954;2023-04-26T05:18:00;101220.19;;;5.58;71.32
818;BME280;391;51.052;6.954;2023-04-26T05:20:05;101221.69;;;5.55;70.90
818;BME280;391;51.052;6.954;2023-04-26T05:22:09;101217.94;;;5.50;71.64
818;BME280;391;51.052;6.954;2023-04-26T05:24:14;101230.06;;;5.51;71.70
818;BME280;391;51.052;6.954;2023-04-26T05:26:18;101229.34;;;5.53;71.33
818;BME280;391;51.052;6.954;2023-04-26T05:28:23;101233.31;;;5.32;71.60
818;BME280;391;51.052;6.954;2023-04-26T05:31:03;101233.31;;;5.32;71.89
818;BME280;391;51.052;6.954;2023-04-26T05:33:36;101226.88;;;5.40;72.42
818;BME280;391;51.052;6.954;2023-04-26T05:36:01;101228.28;;;5.50;72.10
818;BME280;391;51.052;6.954;2023-04-26T05:38:05;101233.28;;;5.61;72.81
818;BME280;391;51.052;6.954;2023-04-26T05:40:09;101237.09;;;5.68;72.29
818;BME280;391;51.052;6.954;2023-04-26T05:42:14;101241.56;;;5.70;72.25
818;BME280;391;51.052;6.954;2023-04-26T05:44:19;101224.00;;;5.81;72.86
818;BME280;391;51.052;6.954;2023-04-26T05:46:24;101226.28;;;5.90;72.50
818;BME280;391;51.052;6.954;2023-04-26T05:48:28;101239.13;;;5.88;72.69
818;BME280;391;51.052;6.954;2023-04-26T05:50:33;101217.59;;;5.74;72.90
818;BME280;391;51.052;6.954;2023-04-26T05:52:40;101245.00;;;5.85;73.04
818;BME280;391;51.052;6.954;2023-04-26T05:54:43;101251.84;;;5.85;73.77
818;BME280;391;51.052;6.954;2023-04-26T05:56:47;101256.84;;;5.82;73.86
818;BME280;391;51.052;6.954;2023-04-26T05:58:51;101256.13;;;5.84;73.68
818;BME280;391;51.052;6.954;2023-04-26T06:00:55;101260.53;;;5.85;74.10
818;BME280;391;51.052;6.954;2023-04-26T06:03:00;101260.34;;;5.82;74.62
818;BME280;391;51.052;6.954;2023-04-26T06:05:04;101251.69;;;5.82;74.32
818;BME280;391;51.052;6.954;2023-04-26T06:07:10;101250.78;;;5.81;75.08
818;BME280;391;51.052;6.954;2023-04-26T06:09:13;101253.03;;;5.90;74.94
818;BME280;391;51.052;6.954;2023-04-26T06:11:19;101256.78;;;5.80;75.49
818;BME280;391;51.052;6.954;2023-04-26T06:13:23;101255.22;;;5.84;76.09
818;BME280;391;51.052;6.954;2023-04-26T06:15:27;101258.72;;;5.99;75.57
818;BME280;391;51.052;6.954;2023-04-26T06:17:30;101262.72;;;6.09;75.82
818;BME280;391;51.052;6.954;2023-04-26T06:19:35;101265.41;;;6.26;75.60
818;BME280;391;51.052;6.954;2023-04-26T06:21:38;101261.19;;;6.45;75.87
818;BME280;391;51.052;6.954;2023-04-26T06:23:42;101264.19;;;6.36;75.72
818;BME280;391;51.052;6.954;2023-04-26T06:25:46;101259.09;;;6.21;75.61
818;BME280;391;51.052;6.954;2023-04-26T06:27:49;101273.25;;;6.28;75.52
818;BME280;391;51.052;6.954;2023-04-26T06:29:53;101278.19;;;6.39;75.52
818;BME280;391;51.052;6.954;2023-04-26T06:31:58;101270.44;;;6.56;75.57
818;BME280;391;51.052;6.954;2023-04-26T06:34:02;101275.78;;;6.75;74.74
818;BME280;391;51.052;6.954;2023-04-26T06:36:10;101263.25;;;6.82;74.54
818;BME280;391;51.052;6.954;2023-04-26T06:38:15;101282.91;;;6.95;74.01
818;BME280;391;51.052;6.954;2023-04-26T06:40:19;101276.00;;;6.96;73.84
818;BME280;391;51.052;6.954;2023-04-26T06:42:23;101283.97;;;6.99;73.06
818;BME280;391;51.052;6.954;2023-04-26T06:44:51;101266.47;;;6.95;72.59
818;BME280;391;51.052;6.954;2023-04-26T06:46:55;101275.66;;;7.06;72.26
818;BME280;391;51.052;6.954;2023-04-26T06:48:59;101277.53;;;7.08;71.42
818;BME280;391;51.052;6.954;2023-04-26T06:51:07;101278.03;;;7.01;71.71
818;BME280;391;51.052;6.954;2023-04-26T06:53:11;101280.84;;;7.06;71.13
818;BME280;391;51.052;6.954;2023-04-26T06:55:14;101276.06;;;7.13;71.33
818;BME280;391;51.052;6.954;2023-04-26T06:57:17;101278.22;;;7.22;71.27
818;BME280;391;51.052;6.954;2023-04-26T06:59:21;101271.75;;;7.30;70.86
818;BME280;391;51.052;6.954;2023-04-26T07:01:24;101278.03;;;7.35;70.87
818;BME280;391;51.052;6.954;2023-04-26T07:03:30;101273.25;;;7.42;70.86
818;BME280;391;51.052;6.954;2023-04-26T07:05:34;101266.94;;;7.55;70.77
818;BME280;391;51.052;6.954;2023-04-26T07:07:38;101270.88;;;7.65;70.17
818;BME280;391;51.052;6.954;2023-04-26T07:09:42;101277.69;;;7.63;69.64
818;BME280;391;51.052;6.954;2023-04-26T07:11:45;101153.66;;;6.85;69.55
818;BME280;391;51.052;6.954;2023-04-26T07:13:49;101277.31;;;7.55;69.37
818;BME280;391;51.052;6.954;2023-04-26T07:15:53;101280.97;;;7.59;69.35
818;BME280;391;51.052;6.954;2023-04-26T07:17:56;101276.50;;;7.74;69.23
818;BME280;391;51.052;6.954;2023-04-26T07:20:00;101275.84;;;7.78;68.50
818;BME280;391;51.052;6.954;2023-04-26T07:22:03;101275.72;;;7.75;68.54
818;BME280;391;51.052;6.954;2023-04-26T07:24:08;101277.13;;;7.68;68.00
818;BME280;391;51.052;6.954;2023-04-26T07:26:11;101280.13;;;7.60;68.10
818;BME280;391;51.052;6.954;2023-04-26T07:28:15;101279.47;;;7.64;68.47
818;BME280;391;51.052;6.954;2023-04-26T07:30:18;101271.31;;;7.74;68.07
818;BME280;391;51.052;6.954;2023-04-26T07:32:22;101256.13;;;7.64;68.37
818;BME280;391;51.052;6.954;2023-04-26T07:34:25;101271.94;;;7.68;68.42
818;BME280;391;51.052;6.954;2023-04-26T07:36:29;101275.63;;;7.73;68.83
818;BME280;391;51.052;6.954;2023-04-26T07:38:32;101238.13;;;7.49;68.72
818;BME280;391;51.052;6.954;2023-04-26T07:40:37;101262.00;;;7.77;68.95
818;BME280;391;51.052;6.954;2023-04-26T07:42:40;101276.00;;;7.81;68.78
818;BME280;391;51.052;6.954;2023-04-26T07:44:44;101235.97;;;7.58;68.49
818;BME280;391;51.052;6.954;2023-04-26T07:46:49;101265.91;;;7.87;68.38
818;BME280;391;51.052;6.954;2023-04-26T07:48:53;101276.31;;;7.87;68.04
818;BME280;391;51.052;6.954;2023-04-26T07:51:05;101278.16;;;7.89;67.06
818;BME280;391;51.052;6.954;2023-04-26T07:53:09;101245.09;;;7.68;67.05
818;BME280;391;51.052;6.954;2023-04-26T07:55:12;101278.00;;;7.86;66.75
818;BME280;391;51.052;6.954;2023-04-26T07:57:20;101280.84;;;7.91;66.07
818;BME280;391;51.052;6.954;2023-04-26T07:59:23;101286.59;;;8.03;65.09
818;BME280;391;51.052;6.954;2023-04-26T08:01:30;101278.28;;;7.92;64.67
818;BME280;391;51.052;6.954;2023-04-26T08:03:33;101282.88;;;7.98;65.37
818;BME280;391;51.052;6.954;2023-04-26T08:05:37;101272.78;;;8.22;64.79
818;BME280;391;51.052;6.954;2023-04-26T08:07:41;101211.56;;;8.09;64.74
818;BME280;391;51.052;6.954;2023-04-26T08:09:45;101270.59;;;8.48;63.96
818;BME280;391;51.052;6.954;2023-04-26T08:11:50;101275.09;;;7.98;62.88
818;BME280;391;51.052;6.954;2023-04-26T08:13:55;101262.72;;;7.92;63.91
818;BME280;391;51.052;6.954;2023-04-26T08:15:59;101268.25;;;8.18;63.95
818;BME280;391;51.052;6.954;2023-04-26T08:18:03;101271.03;;;8.40;63.37
818;BME280;391;51.052;6.954;2023-04-26T08:20:07;101271.69;;;8.54;62.54
818;BME280;391;51.052;6.954;2023-04-26T08:22:11;101190.81;;;8.09;62.07
818;BME280;391;51.052;6.954;2023-04-26T08:24:15;101250.09;;;8.55;62.28
818;BME280;391;51.052;6.954;2023-04-26T08:26:18;101279.47;;;8.54;61.19
818;BME280;391;51.052;6.954;2023-04-26T08:28:21;101262.06;;;8.33;62.01
818;BME280;391;51.052;6.954;2023-04-26T08:30:26;101276.47;;;8.64;61.41
818;BME280;391;51.052;6.954;2023-04-26T08:32:30;101283.88;;;8.74;61.05
818;BME280;391;51.052;6.954;2023-04-26T08:34:35;101286.94;;;8.84;60.62
818;BME280;391;51.052;6.954;2023-04-26T08:36:39;101282.97;;;8.92;60.44
818;BME280;391;51.052;6.954;2023-04-26T08:38:42;101272.84;;;8.98;60.20
818;BME280;391;51.052;6.954;2023-04-26T08:40:46;101278.22;;;9.03;59.80
818;BME280;391;51.052;6.954;2023-04-26T08:42:49;101283.84;;;9.12;59.46
818;BME280;391;51.052;6.954;2023-04-26T08:44:55;101273.19;;;9.06;59.32
818;BME280;391;51.052;6.954;2023-04-26T08:47:08;101279.50;;;9.13;59.13
818;BME280;391;51.052;6.954;2023-04-26T08:49:21;101279.84;;;9.20;59.18
818;BME280;391;51.052;6.954;2023-04-26T08:51:28;101271.16;;;9.20;58.24
818;BME280;391;51.052;6.954;2023-04-26T08:53:35;101281.81;;;9.26;56.87
818;BME280;391;51.052;6.954;2023-04-26T08:55:40;101272.25;;;9.25;55.89
818;BME280;391;51.052;6.954;2023-04-26T08:57:45;101275.94;;;9.30;56.15
818;BME280;391;51.052;6.954;2023-04-26T08:59:49;101256.19;;;9.14;55.98
818;BME280;391;51.052;6.954;2023-04-26T09:01:53;101277.13;;;9.17;55.37
818;BME280;391;51.052;6.954;2023-04-26T09:03:59;101292.31;;;9.27;55.50
818;BME280;391;51.052;6.954;2023-04-26T09:06:05;101289.41;;;9.40;55.47
818;BME280;391;51.052;6.954;2023-04-26T09:08:11;101292.94;;;9.42;54.81
818;BME280;391;51.052;6.954;2023-04-26T09:10:18;101290.69;;;9.50;54.62
818;BME280;391;51.052;6.954;2023-04-26T09:12:22;101287.88;;;9.45;54.28
818;BME280;391;51.052;6.954;2023-04-26T09:14:26;101265.13;;;9.41;54.19
818;BME280;391;51.052;6.954;2023-04-26T09:16:36;101222.94;;;9.28;54.20
818;BME280;391;51.052;6.954;2023-04-26T09:18:46;101282.06;;;9.73;53.72
818;BME280;391;51.052;6.954;2023-04-26T09:21:04;101272.63;;;9.75;53.59
818;BME280;391;51.052;6.954;2023-04-26T09:23:08;101286.00;;;9.64;54.18
818;BME280;391;51.052;6.954;2023-04-26T09:25:14;101260.59;;;9.56;54.12
818;BME280;391;51.052;6.954;2023-04-26T09:27:18;101291.22;;;9.64;52.59
818;BME280;391;51.052;6.954;2023-04-26T09:29:22;101288.50;;;9.61;51.45
818;BME280;391;51.052;6.954;2023-04-26T09:31:35;101255.94;;;9.29;48.09
818;BME280;391;51.052;6.954;2023-04-26T09:33:58;101288.88;;;9.49;48.85
818;BME280;391;51.052;6.954;2023-04-26T09:36:11;101281.34;;;9.55;49.99
818;BME280;391;51.052;6.954;2023-04-26T09:38:16;101169.44;;;9.14;50.35
818;BME280;391;51.052;6.954;2023-04-26T09:40:20;101251.72;;;9.74;50.41
818;BME280;391;51.052;6.954;2023-04-26T09:42:24;101265.66;;;9.96;50.14
818;BME280;391;51.052;6.954;2023-04-26T09:44:28;101275.50;;;10.03;49.79
818;BME280;391;51.052;6.954;2023-04-26T09:46:32;101269.72;;;10.10;49.34
818;BME280;391;51.052;6.954;2023-04-26T09:48:38;101259.88;;;10.03;49.62
818;BME280;391;51.052;6.954;2023-04-26T09:50:43;101272.69;;;9.99;48.76
818;BME280;391;51.052;6.954;2023-04-26T09:52:49;101268.38;;;9.99;49.68
818;BME280;391;51.052;6.954;2023-04-26T09:54:53;101262.84;;;10.13;49.90
818;BME280;391;51.052;6.954;2023-04-26T09:57:00;101277.59;;;10.34;49.96
818;BME280;391;51.052;6.954;2023-04-26T09:59:04;101276.91;;;10.38;50.58
818;BME280;391;51.052;6.954;2023-04-26T10:01:10;101204.63;;;10.12;50.40
818;BME280;391;51.052;6.954;2023-04-26T10:03:17;101263.06;;;10.63;49.52
818;BME280;391;51.052;6.954;2023-04-26T10:05:21;101256.34;;;10.70;48.24
818;BME280;391;51.052;6.954;2023-04-26T10:07:25;101259.47;;;10.83;47.84
818;BME280;391;51.052;6.954;2023-04-26T10:09:32;101264.91;;;10.89;46.60
818;BME280;391;51.052;6.954;2023-04-26T10:11:37;101243.50;;;10.74;45.19
818;BME280;391;51.052;6.954;2023-04-26T10:13:41;101245.66;;;10.62;45.07
818;BME280;391;51.052;6.954;2023-04-26T10:15:46;101254.34;;;10.62;46.08
818;BME280;391;51.052;6.954;2023-04-26T10:17:50;101265.78;;;10.66;46.88
818;BME280;391;51.052;6.954;2023-04-26T10:19:55;101262.16;;;10.62;48.31
818;BME280;391;51.052;6.954;2023-04-26T10:22:03;101256.56;;;10.76;48.50
818;BME280;391;51.052;6.954;2023-04-26T10:24:09;101206.84;;;10.47;47.99
818;BME280;391;51.052;6.954;2023-04-26T10:26:48;101260.13;;;10.78;47.87
818;BME280;391;51.052;6.954;2023-04-26T10:28:54;101260.63;;;10.68;47.46
818;BME280;391;51.052;6.954;2023-04-26T10:31:04;101252.34;;;10.79;47.73
818;BME280;391;51.052;6.954;2023-04-26T10:33:11;101248.25;;;10.86;47.59
818;BME280;391;51.052;6.954;2023-04-26T10:35:16;101245.38;;;10.78;47.78
818;BME280;391;51.052;6.954;2023-04-26T10:37:20;101194.44;;;10.64;47.65
818;BME280;391;51.052;6.954;2023-04-26T10:39:23;101236.91;;;11.34;47.06
818;BME280;391;51.052;6.954;2023-04-26T10:41:30;101238.50;;;11.56;45.82
818;BME280;391;51.052;6.954;2023-04-26T10:43:35;101247.47;;;11.64;45.20
818;BME280;391;51.052;6.954;2023-04-26T10:45:44;101251.22;;;11.71;44.86
818;BME280;391;51.052;6.954;2023-04-26T10:47:48;101241.78;;;11.76;44.54
818;BME280;391;51.052;6.954;2023-04-26T10:49:51;101244.16;;;11.69;44.33
818;BME280;391;51.052;6.954;2023-04-26T10:52:08;101245.63;;;11.61;43.93
818;BME280;391;51.052;6.954;2023-04-26T10:54:12;101245.19;;;11.48;45.03
818;BME280;391;51.052;6.954;2023-04-26T10:56:49;101246.06;;;11.23;45.46
818;BME280;391;51.052;6.954;2023-04-26T10:59:08;101227.69;;;11.20;45.10
818;BME280;391;51.052;6.954;2023-04-26T11:01:15;101246.22;;;11.53;45.62
818;BME280;391;51.052;6.954;2023-04-26T11:03:21;101246.00;;;11.71;44.37
818;BME280;391;51.052;6.954;2023-04-26T11:05:51;101243.97;;;11.63;43.24
818;BME280;391;51.052;6.954;2023-04-26T11:08:02;101241.16;;;11.83;42.80
818;BME280;391;51.052;6.954;2023-04-26T11:10:07;101238.00;;;11.41;41.83
818;BME280;391;51.052;6.954;2023-04-26T11:12:12;101239.25;;;11.27;43.33
818;BME280;391;51.052;6.954;2023-04-26T11:14:17;101230.00;;;11.36;42.16
818;BME280;391;51.052;6.954;2023-04-26T11:16:21;101233.91;;;11.49;42.83
818;BME280;391;51.052;6.954;2023-04-26T11:18:27;101222.63;;;11.50;43.45
818;BME280;391;51.052;6.954;2023-04-26T11:20:32;101234.16;;;11.56;41.82
818;BME280;391;51.052;6.954;2023-04-26T11:22:38;101177.66;;;11.32;41.41
818;BME280;391;51.052;6.954;2023-04-26T11:24:42;101230.72;;;11.57;42.70
818;BME280;391;51.052;6.954;2023-04-26T11:26:50;101221.91;;;11.54;41.83
818;BME280;391;51.052;6.954;2023-04-26T11:28:54;101176.41;;;11.21;40.94
818;BME280;391;51.052;6.954;2023-04-26T11:30:59;101178.78;;;11.40;40.71
818;BME280;391;51.052;6.954;2023-04-26T11:33:03;101224.72;;;11.61;40.13
818;BME280;391;51.052;6.954;2023-04-26T11:35:08;101229.72;;;11.54;39.26
818;BME280;391;51.052;6.954;2023-04-26T11:37:11;101220.56;;;11.66;39.57
818;BME280;391;51.052;6.954;2023-04-26T11:39:15;101140.16;;;11.03;38.63